Time;durP1;ratioP1;P1;durP2;ratioP2;P2;SDS_P1;SDS_P2;PMS_P1;PMS_P2;Temp;Humidity;BMP_temperature;BMP_pressure;BME280_temperature;BME280_humidity;BME280_pressure;Samples;Min_cycle;Max_cycle;Signal;HPM_P1;HPM_P2
2022/05/05 00:04:36;;;;;;;6.10;4.70;;;;;;;10.62;51.55;99753.09;442211;1284;140757;-51
2022/05/05 00:14:42;;;;;;;7.20;4.40;;;;;;;10.60;51.85;99755.48;441385;1284;141380;-54
2022/05/05 00:24:48;;;;;;;5.10;4.10;;;;;;;10.55;52.02;99747.37;442246;1285;141259;-55
2022/05/05 00:34:54;;;;;;;7.10;4.90;;;;;;;10.51;52.35;99751.86;442200;1284;141033;-54
2022/05/05 00:45:01;;;;;;;6.50;4.40;;;;;;;10.47;52.39;99745.23;442171;1285;141887;-54
2022/05/05 00:55:08;;;;;;;4.10;3.70;;;;;;;10.49;52.56;99753.18;442274;1284;141080;-54
2022/05/05 01:05:15;;;;;;;6.50;4.60;;;;;;;10.46;52.35;99748.48;441421;1285;141787;-54
2022/05/05 01:15:21;;;;;;;8.00;4.40;;;;;;;10.47;52.45;99744.58;442234;1285;142548;-54
2022/05/05 01:36:06;;;;;;;8.90;3.90;;;;;;;10.43;52.54;99736.59;440153;1285;140919;-54
2022/05/05 01:46:12;;;;;;;5.40;4.60;;;;;;;10.42;52.53;99729.11;442265;1285;198396;-54
2022/05/05 01:56:17;;;;;;;5.30;4.20;;;;;;;10.43;52.47;99723.06;441427;1285;142583;-54
2022/05/05 02:06:23;;;;;;;7.40;4.20;;;;;;;10.42;52.56;99721.73;440315;1285;141432;-53
2022/05/05 02:16:29;;;;;;;8.70;4.90;;;;;;;10.35;52.60;99727.41;442219;1285;142490;-54
2022/05/05 02:26:35;;;;;;;6.80;4.70;;;;;;;10.18;52.82;99728.22;441360;1285;141543;-53
2022/05/05 02:47:04;;;;;;;15.70;6.30;;;;;;;9.84;53.59;99724.12;441329;1285;141735;-53
2022/05/05 02:57:10;;;;;;;7.00;4.60;;;;;;;9.85;53.88;99730.86;441688;1286;141029;-54
2022/05/05 03:07:16;;;;;;;6.70;4.30;;;;;;;9.94;53.92;99723.71;442179;1285;141078;-54
2022/05/05 03:17:22;;;;;;;11.70;5.40;;;;;;;9.95;53.90;99733.77;441444;1285;141524;-55
2022/05/05 03:27:28;;;;;;;5.80;3.50;;;;;;;9.87;54.07;99741.77;442199;1285;142705;-54
2022/05/05 03:37:34;;;;;;;5.70;3.70;;;;;;;9.74;54.22;99746.36;439613;1285;141963;-54
2022/05/05 03:47:40;;;;;;;6.40;4.00;;;;;;;9.63;54.42;99751.17;441435;1285;141099;-53
2022/05/05 03:57:48;;;;;;;7.00;4.20;;;;;;;9.53;54.76;99752.14;442207;1285;141078;-54
2022/05/05 04:07:54;;;;;;;4.60;4.00;;;;;;;9.58;54.88;99756.55;442128;1284;141694;-53
2022/05/05 04:18:00;;;;;;;5.20;4.50;;;;;;;9.80;54.76;99764.23;442208;1284;141107;-54
2022/05/05 04:28:06;;;;;;;7.30;4.60;;;;;;;10.88;54.00;99764.23;442107;1285;141419;-53
2022/05/05 04:38:12;;;;;;;6.70;4.00;;;;;;;11.50;52.43;99766.52;441479;1284;143299;-55
2022/05/05 04:48:18;;;;;;;5.40;4.00;;;;;;;11.68;51.87;99768.66;442272;1284;143549;-52
2022/05/05 04:58:23;;;;;;;7.00;4.50;;;;;;;12.29;51.26;99775.10;442216;1284;142185;-53
2022/05/05 05:08:29;;;;;;;5.00;3.50;;;;;;;18.14;46.76;99773.71;441457;1285;141873;-56
2022/05/05 05:18:35;;;;;;;4.50;3.10;;;;;;;23.54;39.11;99766.52;442170;1284;141014;-55
2022/05/05 05:28:40;;;;;;;9.90;3.60;;;;;;;27.12;34.23;99762.77;442015;1285;141913;-53
2022/05/05 05:38:46;;;;;;;6.40;3.60;;;;;;;29.14;29.74;99760.10;437765;1285;141397;-56
2022/05/05 05:48:52;;;;;;;7.70;3.80;;;;;;;31.75;26.84;99751.77;441737;1284;142024;-56
2022/05/05 05:58:58;;;;;;;7.40;3.60;;;;;;;33.02;24.50;99750.55;441978;1285;141591;-54
2022/05/05 06:09:04;;;;;;;5.80;3.90;;;;;;;35.20;22.61;99756.35;441865;1285;140899;-53
2022/05/05 06:19:10;;;;;;;4.40;3.40;;;;;;;37.15;20.24;99760.73;441970;1285;141012;-55
2022/05/05 06:29:16;;;;;;;5.60;3.80;;;;;;;37.59;19.13;99757.08;441251;1285;142158;-56
2022/05/05 06:39:22;;;;;;;6.10;3.50;;;;;;;39.40;17.69;99763.41;442030;1285;143348;-54
2022/05/05 06:49:27;;;;;;;7.90;4.00;;;;;;;39.71;16.98;99765.36;442083;1284;143229;-57
2022/05/05 06:59:33;;;;;;;4.80;3.20;;;;;;;40.70;16.25;99760.04;441299;1284;142898;-58
2022/05/05 07:20:04;;;;;;;4.90;3.90;;;;;;;42.82;14.28;99769.95;441255;1284;153836;-60
2022/05/05 07:30:12;;;;;;;4.20;3.80;;;;;;;43.38;13.95;99767.18;434041;1285;141412;-61
2022/05/05 07:40:18;;;;;;;5.30;3.90;;;;;;;44.09;13.28;99767.83;442136;1285;141625;-60
2022/05/05 07:50:24;;;;;;;5.10;4.60;;;;;;;44.35;12.95;99764.64;441288;1284;141741;-60
2022/05/05 08:00:30;;;;;;;6.40;4.30;;;;;;;44.73;12.86;99765.46;442041;1285;141633;-59
2022/05/05 08:10:36;;;;;;;5.10;4.50;;;;;;;43.54;12.84;99770.39;442063;1284;141183;-59
2022/05/05 08:20:42;;;;;;;4.90;4.30;;;;;;;36.33;15.37;99765.80;441387;1284;142179;-61
2022/05/05 08:30:48;;;;;;;8.20;5.80;;;;;;;31.13;18.89;99774.40;441957;1285;143876;-59
2022/05/05 08:40:55;;;;;;;6.60;5.40;;;;;;;28.60;20.98;99771.33;441708;1285;141357;-61
2022/05/05 08:51:01;;;;;;;8.60;5.50;;;;;;;26.85;22.92;99781.98;441898;1285;141523;-61
2022/05/05 09:01:05;;;;;;;;;;;;;;;26.19;24.14;99781.46;442015;1285;141272;-58
2022/05/05 09:11:18;;;;;;;7.90;6.50;;;;;;;25.56;25.06;99782.26;441587;1285;128206;-60
2022/05/05 09:21:35;;;;;;;9.70;6.60;;;;;;;25.24;26.11;99780.48;441953;1285;143924;-62
2022/05/05 09:31:41;;;;;;;12.10;6.60;;;;;;;24.83;26.75;99778.59;441904;1285;141746;-59
2022/05/05 09:41:49;;;;;;;8.70;6.20;;;;;;;24.93;26.89;99780.14;441081;1284;141346;-58
2022/05/05 10:12:52;;;;;;;6.60;5.90;;;;;;;23.75;28.16;99769.11;441641;1285;141293;-58
2022/05/05 10:23:07;;;;;;;14.90;6.80;;;;;;;23.92;28.13;99764.81;441787;1285;143064;-58
2022/05/05 10:33:14;;;;;;;6.60;5.40;;;;;;;24.11;28.28;99756.94;441812;1285;141174;-58
2022/05/05 10:43:34;;;;;;;7.50;6.80;;;;;;;24.39;28.36;99749.92;441876;1285;143002;-58
2022/05/05 10:53:42;;;;;;;6.90;5.50;;;;;;;24.33;28.28;99758.42;441164;1285;141250;-57
2022/05/05 11:04:08;;;;;;;5.30;4.80;;;;;;;24.64;28.06;99749.35;441984;1285;141746;-57
2022/05/05 11:24:58;;;;;;;13.90;5.70;;;;;;;24.45;26.95;99740.05;442080;1285;140772;-57
2022/05/05 11:35:05;;;;;;;7.80;4.30;;;;;;;23.95;27.04;99729.83;441195;1285;141779;-58
2022/05/05 11:45:11;;;;;;;7.10;4.90;;;;;;;24.15;26.88;99726.06;441612;1286;141441;-59
2022/05/05 11:55:20;;;;;;;5.50;4.60;;;;;;;23.97;27.12;99731.17;442001;1285;143068;-58
2022/05/05 12:05:28;;;;;;;4.40;4.00;;;;;;;23.75;26.92;99728.23;440565;1285;141110;-56
2022/05/05 12:15:35;;;;;;;6.10;4.40;;;;;;;23.75;26.77;99710.55;441951;1285;142167;-60
2022/05/05 12:25:44;;;;;;;4.80;4.30;;;;;;;23.85;27.05;99712.90;442077;1285;140641;-60
2022/05/05 12:35:52;;;;;;;5.80;4.10;;;;;;;23.62;26.91;99705.27;441355;1285;141798;-60
2022/05/05 12:46:03;;;;;;;4.10;3.70;;;;;;;23.61;27.05;99696.98;441534;1286;142516;-62
2022/05/05 13:06:34;;;;;;;3.90;3.30;;;;;;;24.03;26.51;99680.19;440051;1284;142511;-57
2022/05/05 13:16:40;;;;;;;4.30;4.00;;;;;;;23.98;26.60;99678.92;441676;1286;141702;-57
2022/05/05 13:26:48;;;;;;;5.70;3.70;;;;;;;24.05;26.27;99680.68;441325;1285;143510;-58
2022/05/05 13:36:54;;;;;;;4.80;3.20;;;;;;;24.42;25.93;99674.96;442075;1284;141374;-58
2022/05/05 13:47:00;;;;;;;8.50;3.50;;;;;;;24.26;25.84;99666.67;442156;1285;142677;-57
2022/05/05 13:57:06;;;;;;;4.80;3.10;;;;;;;24.12;26.10;99650.80;441829;1285;142064;-57
2022/05/05 14:07:12;;;;;;;6.20;3.90;;;;;;;23.91;26.19;99659.67;442039;1285;142025;-58
2022/05/05 14:17:20;;;;;;;5.90;3.30;;;;;;;23.93;26.17;99656.75;441294;1285;141393;-58
2022/05/05 14:27:26;;;;;;;9.20;4.10;;;;;;;23.88;26.46;99655.96;441982;1285;140505;-57
2022/05/05 14:37:32;;;;;;;5.60;3.40;;;;;;;23.86;26.22;99652.02;441980;1285;140940;-58
2022/05/05 14:47:39;;;;;;;4.40;3.70;;;;;;;23.91;26.00;99652.02;441236;1285;144153;-58
2022/05/05 14:57:46;;;;;;;8.10;3.70;;;;;;;23.90;26.23;99648.07;440846;1285;141472;-57
2022/05/05 15:07:51;;;;;;;9.60;3.30;;;;;;;23.84;25.97;99651.25;442087;1284;142997;-58
2022/05/05 15:17:57;;;;;;;7.90;3.60;;;;;;;23.82;25.59;99651.88;431061;1284;140557;-56
2022/05/05 15:28:03;;;;;;;9.70;3.50;;;;;;;23.63;25.78;99648.34;425837;1285;142505;-56
2022/05/05 15:38:10;;;;;;;5.30;3.00;;;;;;;23.40;25.74;99644.09;441289;1285;142709;-57
2022/05/05 15:48:16;;;;;;;5.70;3.60;;;;;;;23.11;25.96;99638.74;442181;1285;140825;-57
2022/05/05 15:58:22;;;;;;;3.40;3.10;;;;;;;22.88;26.53;99638.91;442082;1284;142101;-57
2022/05/05 16:08:27;;;;;;;6.10;3.30;;;;;;;22.69;26.69;99641.64;441111;1285;141990;-58
2022/05/05 16:18:33;;;;;;;3.60;3.20;;;;;;;22.55;26.69;99647.90;441930;1286;141489;-59
2022/05/05 16:39:02;;;;;;;6.20;4.80;;;;;;;21.77;28.91;99653.27;441872;1286;141648;-58
2022/05/05 16:49:08;;;;;;;6.30;4.40;;;;;;;21.53;29.54;99658.52;441909;1285;140411;-59
2022/05/05 16:59:14;;;;;;;6.40;4.40;;;;;;;21.17;30.06;99665.23;441242;1286;141291;-60
2022/05/05 17:09:20;;;;;;;6.40;4.60;;;;;;;20.86;31.15;99665.98;442062;1285;141109;-58
2022/05/05 17:19:26;;;;;;;10.10;4.90;;;;;;;20.61;32.06;99676.14;436684;1287;145447;-57
2022/05/05 17:29:32;;;;;;;9.70;4.60;;;;;;;20.32;32.48;99687.85;441284;1286;142102;-58
2022/05/05 17:39:38;;;;;;;7.40;5.30;;;;;;;20.05;32.84;99694.08;442170;1285;141449;-57
2022/05/05 18:00:09;;;;;;;17.10;4.60;;;;;;;19.54;34.99;99742.48;442059;1285;201383;-58
2022/05/05 18:10:15;;;;;;;4.20;3.80;;;;;;;18.72;38.40;99775.59;442011;1285;141592;-58
2022/05/05 18:20:22;;;;;;;6.80;4.00;;;;;;;17.91;41.00;99794.33;441091;1285;142407;-58
2022/05/05 18:30:28;;;;;;;7.70;4.40;;;;;;;17.37;43.29;99800.44;441959;1285;141269;-59
2022/05/05 18:40:34;;;;;;;8.10;5.60;;;;;;;16.96;45.11;99813.16;441918;1285;140591;-59
2022/05/05 18:50:40;;;;;;;7.10;5.60;;;;;;;16.74;46.56;99820.58;441152;1285;141788;-58
2022/05/05 19:00:45;;;;;;;6.20;5.10;;;;;;;16.62;47.60;99827.76;442022;1285;140923;-56
2022/05/05 19:10:51;;;;;;;8.50;6.20;;;;;;;16.47;48.86;99830.48;442064;1285;142109;-58
2022/05/05 19:20:57;;;;;;;7.90;6.80;;;;;;;16.24;49.93;99832.75;441298;1285;141325;-59
2022/05/05 19:31:04;;;;;;;9.60;7.60;;;;;;;16.06;50.76;99841.84;438578;1285;141818;-59
2022/05/05 19:41:11;;;;;;;16.70;9.00;;;;;;;15.92;51.58;99853.22;441262;1285;141555;-60
2022/05/05 19:51:17;;;;;;;9.40;8.50;;;;;;;15.77;52.08;99855.27;438402;1285;141386;-59
2022/05/05 20:01:23;;;;;;;12.50;9.90;;;;;;;15.58;52.73;99860.68;441665;1285;143486;-58
2022/05/05 20:11:29;;;;;;;10.50;9.30;;;;;;;15.40;53.66;99871.85;441082;1285;142134;-58
2022/05/05 20:21:36;;;;;;;9.70;8.70;;;;;;;15.25;54.50;99879.87;441621;1285;141039;-58
2022/05/05 20:31:42;;;;;;;10.70;9.20;;;;;;;15.03;55.41;99886.31;438474;1284;140126;-57
2022/05/05 20:41:51;;;;;;;8.20;7.40;;;;;;;14.87;56.06;99892.48;434162;1285;141302;-59
2022/05/05 20:51:59;;;;;;;11.70;9.20;;;;;;;14.72;56.59;99894.33;428643;1285;141011;-59
2022/05/05 21:02:06;;;;;;;10.80;9.80;;;;;;;14.54;57.09;99897.95;440733;1286;140970;-59
2022/05/05 21:12:13;;;;;;;11.30;10.10;;;;;;;14.51;57.42;99905.20;441913;1285;143203;-59
2022/05/05 21:32:54;;;;;;;9.20;8.30;;;;;;;14.67;57.60;99901.17;439867;1286;323378;-58
2022/05/05 21:43:00;;;;;;;9.50;8.60;;;;;;;14.70;57.56;99898.36;441709;1285;142198;-60
2022/05/05 21:53:07;;;;;;;9.80;7.70;;;;;;;14.70;57.19;99898.17;441082;1285;142093;-57
2022/05/05 22:03:14;;;;;;;7.70;7.00;;;;;;;14.80;56.26;99896.86;441924;1285;141919;-57
2022/05/05 22:13:21;;;;;;;8.60;7.60;;;;;;;14.83;55.93;99896.71;441942;1285;141729;-59
2022/05/05 22:23:28;;;;;;;11.00;8.00;;;;;;;14.76;55.83;99897.40;437121;1285;140982;-58
2022/05/05 22:33:33;;;;;;;11.70;10.60;;;;;;;14.69;55.95;99890.16;441857;1285;142449;-59
2022/05/05 22:43:39;;;;;;;9.90;9.00;;;;;;;14.60;56.04;99884.60;441847;1285;144705;-59
2022/05/05 22:53:45;;;;;;;7.90;7.10;;;;;;;14.52;56.16;99893.38;440910;1285;141619;-59
2022/05/05 23:03:50;;;;;;;8.60;7.80;;;;;;;14.39;56.35;99892.73;441896;1284;141869;-60
2022/05/05 23:13:56;;;;;;;9.30;8.30;;;;;;;14.29;56.62;99888.20;441861;1285;141891;-60
2022/05/05 23:24:02;;;;;;;9.50;8.50;;;;;;;14.25;56.82;99889.22;441676;1285;141205;-59
2022/05/05 23:44:31;;;;;;;9.00;8.10;;;;;;;14.13;57.26;99893.56;441150;1286;141955;-59
2022/05/05 23:54:37;;;;;;;8.30;7.60;;;;;;;13.96;57.56;99889.05;435424;1286;140805;-59
